createdAt,value
2022-09-16T00:00:43.886Z,9.10
2022-09-16T00:03:11.904Z,8.45
2022-09-16T00:05:56.833Z,7.75
2022-09-16T00:08:23.551Z,9.25
2022-09-16T00:10:51.243Z,7.90
2022-09-16T00:13:18.851Z,9.55
2022-09-16T00:15:49.089Z,12.05
2022-09-16T00:18:15.768Z,9.13
2022-09-16T00:20:44.655Z,10.07
2022-09-16T00:23:11.333Z,10.20
2022-09-16T00:25:37.974Z,12.25
2022-09-16T00:28:04.692Z,10.90
2022-09-16T00:30:31.498Z,10.82
2022-09-16T00:32:58.246Z,10.50
2022-09-16T00:35:24.883Z,8.50
2022-09-16T00:37:51.490Z,12.48
2022-09-16T00:40:18.265Z,8.77
2022-09-16T00:42:45.265Z,10.98
2022-09-16T00:45:21.094Z,7.53
2022-09-16T00:48:01.749Z,8.50
2022-09-16T00:50:38.507Z,9.27
2022-09-16T00:53:09.561Z,9.00
2022-09-16T00:55:37.711Z,9.90
2022-09-16T00:58:35.523Z,8.30
2022-09-16T01:01:05.790Z,9.20
2022-09-16T01:03:39.434Z,7.50
2022-09-16T01:06:06.943Z,7.90
2022-09-16T01:08:33.970Z,8.00
2022-09-16T01:11:00.885Z,7.80
2022-09-16T01:13:27.585Z,8.07
2022-09-16T01:15:54.173Z,8.98
2022-09-16T01:18:42.275Z,7.38
2022-09-16T01:21:31.362Z,6.65
2022-09-16T01:24:04.243Z,6.72
2022-09-16T01:27:05.042Z,7.20
2022-09-16T01:29:56.489Z,7.15
2022-09-16T01:32:28.217Z,7.63
2022-09-16T01:35:08.413Z,8.75
2022-09-16T01:38:16.940Z,6.68
2022-09-16T01:40:54.315Z,6.78
2022-09-16T01:43:55.887Z,7.90
2022-09-16T01:46:44.563Z,6.25
2022-09-16T01:49:20.240Z,7.60
2022-09-16T01:52:03.099Z,7.90
2022-09-16T01:54:47.642Z,6.10
2022-09-16T01:57:21.818Z,9.10
2022-09-16T01:59:58.906Z,5.72
2022-09-16T02:02:34.797Z,6.38
2022-09-16T02:05:05.917Z,8.57
2022-09-16T02:07:41.284Z,5.85
2022-09-16T02:10:24.989Z,6.95
2022-09-16T02:12:55.181Z,7.57
2022-09-16T02:15:25.332Z,7.25
2022-09-16T02:18:04.597Z,7.70
2022-09-16T02:20:35.866Z,7.20
2022-09-16T02:23:29.361Z,9.02
2022-09-16T02:25:58.012Z,8.35
2022-09-16T02:28:30.940Z,10.48
2022-09-16T02:31:01.834Z,8.25
2022-09-16T02:33:42.982Z,8.88
2022-09-16T02:36:14.159Z,8.02
2022-09-16T02:38:46.166Z,7.50
2022-09-16T02:41:14.929Z,7.85
2022-09-16T02:43:42.830Z,8.20
2022-09-16T02:46:19.130Z,11.40
2022-09-16T02:49:05.866Z,9.77
2022-09-16T02:52:06.031Z,9.10
2022-09-16T02:54:50.156Z,11.65
2022-09-16T02:57:17.154Z,10.63
2022-09-16T02:59:44.549Z,9.60
2022-09-16T03:02:11.496Z,10.23
2022-09-16T03:04:38.511Z,10.63
2022-09-16T03:07:08.111Z,15.00
2022-09-16T03:09:41.990Z,10.05
2022-09-16T03:12:32.413Z,10.13
2022-09-16T03:15:17.557Z,12.10
2022-09-16T03:18:29.039Z,9.57
2022-09-16T03:21:08.301Z,9.43
2022-09-16T03:24:04.481Z,9.50
2022-09-16T03:26:46.152Z,8.98
2022-09-16T03:29:31.351Z,8.13
2022-09-16T03:32:07.148Z,10.32
2022-09-16T03:34:37.342Z,8.57
2022-09-16T03:37:08.861Z,8.38
2022-09-16T03:39:36.777Z,9.85
2022-09-16T03:42:06.135Z,8.55
2022-09-16T03:44:39.303Z,8.63
2022-09-16T03:47:07.659Z,7.95
2022-09-16T03:49:35.006Z,7.43
2022-09-16T03:52:01.839Z,8.10
2022-09-16T03:54:28.442Z,9.45
2022-09-16T03:56:55.051Z,7.68
2022-09-16T03:59:22.151Z,8.20
2022-09-16T04:01:49.044Z,9.55
2022-09-16T04:04:15.644Z,8.70
2022-09-16T04:06:42.384Z,7.93
2022-09-16T04:09:12.200Z,9.90
2022-09-16T04:11:41.982Z,7.80
2022-09-16T04:14:08.605Z,8.05
2022-09-16T04:16:35.282Z,11.52
2022-09-16T04:19:02.085Z,10.95
2022-09-16T04:21:29.479Z,13.32
2022-09-16T04:23:56.166Z,11.50
2022-09-16T04:26:22.888Z,10.18
2022-09-16T04:28:53.072Z,8.68
2022-09-16T04:31:19.888Z,11.52
2022-09-16T04:33:46.600Z,9.82
2022-09-16T04:36:15.797Z,9.93
2022-09-16T04:38:44.036Z,9.85
2022-09-16T04:41:12.870Z,10.10
2022-09-16T04:43:40.068Z,8.75
2022-09-16T04:46:07.760Z,11.95
2022-09-16T04:48:35.227Z,11.75
2022-09-16T04:51:10.920Z,10.85
2022-09-16T04:53:39.338Z,9.27
2022-09-16T04:56:15.772Z,9.20
2022-09-16T04:58:48.021Z,9.48
2022-09-16T05:03:45.085Z,9.65
2022-09-16T05:06:19.716Z,12.27
2022-09-16T05:08:48.070Z,10.95
2022-09-16T05:11:20.215Z,11.05
2022-09-16T05:13:47.533Z,9.98
2022-09-16T05:16:16.985Z,12.18
2022-09-16T05:18:45.239Z,12.70
2022-09-16T05:21:14.707Z,10.25
2022-09-16T05:23:46.768Z,9.20
2022-09-16T05:26:15.403Z,10.63
2022-09-16T05:28:42.423Z,7.65
2022-09-16T05:31:10.104Z,8.55
2022-09-16T05:33:37.375Z,8.90
2022-09-16T05:36:13.211Z,9.85
2022-09-16T05:38:39.937Z,8.93
2022-09-16T05:41:07.366Z,9.07
2022-09-16T05:43:35.053Z,8.38
2022-09-16T05:46:02.050Z,7.75
2022-09-16T05:48:29.050Z,6.18
2022-09-16T05:50:58.210Z,6.15
2022-09-16T05:53:26.455Z,6.80
2022-09-16T05:56:00.180Z,10.60
2022-09-16T05:58:28.648Z,6.57
2022-09-16T06:01:13.219Z,7.35
2022-09-16T06:03:41.769Z,17.40
2022-09-16T06:06:19.634Z,7.07
2022-09-16T06:08:46.482Z,5.93
2022-09-16T06:11:13.169Z,7.88
2022-09-16T06:13:40.508Z,8.07
2022-09-16T06:16:09.239Z,6.00
2022-09-16T06:18:37.264Z,7.65
2022-09-16T06:21:10.270Z,8.80
2022-09-16T06:23:38.579Z,7.55
2022-09-16T06:26:11.485Z,9.25
2022-09-16T06:28:38.694Z,8.50
2022-09-16T06:31:12.482Z,7.85
2022-09-16T06:33:40.126Z,7.28
2022-09-16T06:36:09.923Z,5.93
2022-09-16T06:38:37.081Z,5.75
2022-09-16T06:41:06.987Z,6.03
2022-09-16T06:43:34.617Z,5.22
2022-09-16T06:46:06.366Z,5.90
2022-09-16T06:48:34.554Z,4.40
2022-09-16T06:51:06.200Z,4.78
2022-09-16T06:53:33.858Z,5.78
2022-09-16T06:56:05.281Z,5.75
2022-09-16T06:58:33.330Z,6.15
2022-09-16T07:01:05.211Z,6.75
2022-09-16T07:03:32.033Z,5.70
2022-09-16T07:06:02.613Z,5.35
2022-09-16T07:08:31.260Z,4.53
2022-09-16T07:11:04.130Z,3.92
2022-09-16T07:13:31.571Z,3.97
2022-09-16T07:16:14.709Z,4.60
2022-09-16T07:18:42.517Z,5.10
2022-09-16T07:21:17.475Z,4.47
2022-09-16T07:23:45.756Z,5.57
2022-09-16T07:26:15.525Z,4.57
2022-09-16T07:28:44.025Z,4.57
2022-09-16T07:31:13.572Z,5.53
2022-09-16T07:33:42.523Z,5.68
2022-09-16T07:36:11.984Z,7.20
2022-09-16T07:38:38.904Z,5.40
2022-09-16T07:41:11.880Z,5.70
2022-09-16T07:43:42.974Z,9.45
2022-09-16T07:46:11.811Z,6.97
2022-09-16T07:48:39.051Z,6.80
2022-09-16T07:51:08.439Z,7.72
2022-09-16T07:53:36.126Z,10.52
2022-09-16T07:56:03.766Z,8.52
2022-09-16T07:58:30.853Z,7.55
2022-09-16T08:01:02.003Z,8.32
2022-09-16T08:03:31.891Z,7.65
2022-09-16T08:06:03.763Z,7.15
2022-09-16T08:08:31.557Z,7.22
2022-09-16T08:10:59.800Z,6.50
2022-09-16T08:13:29.276Z,6.95
2022-09-16T08:16:02.105Z,7.55
2022-09-16T08:18:29.160Z,8.75
2022-09-16T08:20:56.109Z,8.10
2022-09-16T08:23:23.227Z,7.65
2022-09-16T08:25:59.974Z,10.52
2022-09-16T08:28:39.622Z,7.40
2022-09-16T08:31:15.019Z,6.68
2022-09-16T08:33:42.474Z,8.02
2022-09-16T08:36:18.021Z,7.00
2022-09-16T08:38:44.907Z,7.15
2022-09-16T08:41:49.144Z,6.88
2022-09-16T08:44:18.561Z,11.23
2022-09-16T08:46:48.015Z,7.13
2022-09-16T08:49:29.225Z,6.50
2022-09-16T08:51:58.476Z,5.93
2022-09-16T08:54:30.558Z,6.43
2022-09-16T08:59:31.906Z,6.40
2022-09-16T09:02:25.135Z,11.05
2022-09-16T09:04:52.261Z,8.20
2022-09-16T09:07:21.926Z,7.03
2022-09-16T09:10:08.524Z,4.75
2022-09-16T09:12:41.785Z,6.72
2022-09-16T09:15:16.737Z,5.88
2022-09-16T09:18:15.715Z,4.30
2022-09-16T09:20:51.743Z,6.03
2022-09-16T09:23:40.469Z,5.47
2022-09-16T09:26:33.492Z,5.82
2022-09-16T09:29:23.583Z,3.45
2022-09-16T09:32:19.959Z,4.28
2022-09-16T09:34:55.699Z,3.17
2022-09-16T09:37:28.415Z,4.28
2022-09-16T09:39:58.245Z,5.20
2022-09-16T09:42:30.605Z,4.45
2022-09-16T09:45:38.253Z,3.85
2022-09-16T09:48:24.802Z,4.63
2022-09-16T09:50:53.399Z,4.20
2022-09-16T09:53:29.114Z,4.45
2022-09-16T09:56:33.437Z,7.95
2022-09-16T09:59:19.910Z,4.00
2022-09-16T10:01:46.688Z,4.03
2022-09-16T10:04:16.323Z,4.57
2022-09-16T10:06:45.990Z,5.15
2022-09-16T10:09:15.577Z,5.28
2022-09-16T10:11:57.887Z,4.20
2022-09-16T10:17:05.844Z,5.40
2022-09-16T10:19:38.875Z,3.60
2022-09-16T10:22:21.596Z,4.07
2022-09-16T10:25:04.770Z,8.18
2022-09-16T10:27:36.068Z,4.28
2022-09-16T10:30:08.715Z,7.28
2022-09-16T10:32:46.451Z,4.88
2022-09-16T10:35:20.624Z,6.53
2022-09-16T10:38:15.808Z,5.22
2022-09-16T10:40:57.882Z,4.95
2022-09-16T10:43:26.277Z,5.75
2022-09-16T10:45:54.246Z,5.63
2022-09-16T10:48:26.351Z,4.80
2022-09-16T10:50:57.297Z,6.93
2022-09-16T10:53:32.296Z,7.30
2022-09-16T10:56:04.850Z,6.03
2022-09-16T10:58:31.854Z,6.85
2022-09-16T11:00:58.531Z,4.72
2022-09-16T11:03:43.877Z,5.00
2022-09-16T11:06:19.329Z,5.25
2022-09-16T11:09:01.144Z,6.57
2022-09-16T11:11:41.411Z,5.85
2022-09-16T11:14:35.146Z,6.10
2022-09-16T11:17:30.802Z,6.03
2022-09-16T11:20:39.720Z,10.00
2022-09-16T11:23:09.161Z,5.65
2022-09-16T11:25:50.215Z,3.92
2022-09-16T11:28:35.146Z,5.07
2022-09-16T11:31:29.575Z,5.72
2022-09-16T11:34:24.392Z,5.45
2022-09-16T11:36:55.628Z,5.72
2022-09-16T11:39:45.141Z,4.53
2022-09-16T11:42:52.518Z,5.97
2022-09-16T11:45:21.989Z,6.18
2022-09-16T11:48:12.249Z,5.30
2022-09-16T11:50:38.898Z,5.47
2022-09-16T11:53:39.133Z,4.95
2022-09-16T11:56:21.733Z,5.97
2022-09-16T11:58:56.559Z,5.80
2022-09-16T12:01:40.181Z,5.57
2022-09-16T12:04:33.705Z,7.03
2022-09-16T12:07:14.725Z,7.35
2022-09-16T12:09:56.968Z,5.97
2022-09-16T12:12:29.544Z,6.50
2022-09-16T12:15:13.363Z,7.63
2022-09-16T12:17:49.132Z,5.13
2022-09-16T12:20:20.907Z,7.80
2022-09-16T12:23:02.465Z,6.10
2022-09-16T12:26:09.465Z,6.15
2022-09-16T12:29:25.825Z,5.07
2022-09-16T12:32:01.388Z,5.18
2022-09-16T12:34:55.604Z,5.38
2022-09-16T12:37:48.532Z,5.30
2022-09-16T12:40:50.223Z,7.82
2022-09-16T12:43:16.877Z,5.77
2022-09-16T12:45:46.446Z,5.63
2022-09-16T12:48:40.980Z,5.03
2022-09-16T12:51:29.716Z,5.20
2022-09-16T12:54:24.509Z,6.55
2022-09-16T12:56:56.807Z,4.55
2022-09-16T12:59:32.451Z,4.30
2022-09-16T13:02:06.367Z,4.97
2022-09-16T13:05:03.647Z,6.32
2022-09-16T13:07:35.011Z,4.97
2022-09-16T13:10:08.368Z,4.60
2022-09-16T13:12:43.707Z,4.75
2022-09-16T13:15:25.020Z,5.65
2022-09-16T13:17:54.876Z,4.40
2022-09-16T13:20:34.692Z,4.15
2022-09-16T13:23:12.854Z,7.32
2022-09-16T13:25:50.802Z,4.72
2022-09-16T13:28:25.155Z,5.30
2022-09-16T13:30:52.818Z,4.97
2022-09-16T13:33:22.973Z,5.55
2022-09-16T13:36:11.451Z,6.95
2022-09-16T13:38:41.482Z,5.75
2022-09-16T13:41:11.871Z,4.53
2022-09-16T13:43:47.436Z,4.45
2022-09-16T13:46:38.003Z,11.38
2022-09-16T13:49:10.950Z,6.68
2022-09-16T13:51:46.690Z,8.60
2022-09-16T13:54:26.076Z,7.10
2022-09-16T13:57:43.686Z,5.95
2022-09-16T14:00:15.733Z,5.90
2022-09-16T14:03:13.884Z,6.10
2022-09-16T14:06:08.494Z,9.45
2022-09-16T14:08:44.310Z,7.72
2022-09-16T14:11:16.629Z,5.78
2022-09-16T14:13:48.603Z,6.05
2022-09-16T14:16:39.946Z,6.80
2022-09-16T14:19:12.503Z,10.02
2022-09-16T14:21:39.265Z,12.45
2022-09-16T14:24:17.189Z,12.13
2022-09-16T14:26:54.642Z,12.32
2022-09-16T14:29:22.701Z,11.27
2022-09-16T14:31:52.706Z,12.57
2022-09-16T14:34:31.234Z,11.52
2022-09-16T14:36:58.169Z,12.13
2022-09-16T14:39:27.897Z,12.40
2022-09-16T14:42:02.749Z,12.20
2022-09-16T14:44:32.473Z,16.58
2022-09-16T14:47:08.770Z,13.95
2022-09-16T14:49:40.226Z,12.18
2022-09-16T14:52:18.730Z,12.93
2022-09-16T14:54:45.793Z,13.30
2022-09-16T14:57:19.024Z,15.95
2022-09-16T14:59:45.952Z,12.75
2022-09-16T15:02:18.624Z,13.07
2022-09-16T15:04:48.326Z,12.00
2022-09-16T15:07:23.019Z,14.88
2022-09-16T15:09:56.731Z,11.65
2022-09-16T15:12:33.198Z,12.63
2022-09-16T15:15:05.731Z,12.40
2022-09-16T15:17:32.689Z,14.85
2022-09-16T15:20:00.152Z,14.05
2022-09-16T15:22:27.664Z,15.98
2022-09-16T15:24:58.504Z,15.18
2022-09-16T15:27:34.248Z,14.15
2022-09-16T15:30:05.364Z,13.02
2022-09-16T15:32:32.251Z,15.52
2022-09-16T15:35:26.621Z,16.13
2022-09-16T15:37:54.944Z,14.50
2022-09-16T15:40:30.688Z,15.25
2022-09-16T15:43:18.465Z,14.70
2022-09-16T15:46:00.488Z,15.48
2022-09-16T15:48:31.824Z,16.75
2022-09-16T15:51:06.977Z,16.17
2022-09-16T15:53:33.589Z,15.43
2022-09-16T15:56:06.415Z,15.13
2022-09-16T15:58:33.176Z,13.35
2022-09-16T16:01:14.776Z,14.38
2022-09-16T16:03:44.524Z,14.95
2022-09-16T16:06:12.332Z,15.48
2022-09-16T16:08:48.953Z,13.07
2022-09-16T16:11:20.956Z,13.50
2022-09-16T16:13:50.273Z,12.98
2022-09-16T16:16:18.168Z,12.80
2022-09-16T16:18:46.348Z,10.48
2022-09-16T16:21:16.032Z,11.48
2022-09-16T16:23:43.554Z,12.35
2022-09-16T16:26:11.612Z,20.20
2022-09-16T16:28:38.833Z,15.98
2022-09-16T16:31:16.893Z,18.90
2022-09-16T16:33:48.070Z,36.03
2022-09-16T16:36:16.845Z,23.55
2022-09-16T16:38:45.520Z,13.35
2022-09-16T16:41:13.562Z,14.52
2022-09-16T16:43:40.476Z,15.98
2022-09-16T16:46:07.427Z,14.98
2022-09-16T16:48:34.248Z,13.85
2022-09-16T16:51:04.776Z,13.07
2022-09-16T16:53:32.297Z,13.25
2022-09-16T16:56:05.919Z,13.10
2022-09-16T16:58:36.031Z,15.55
2022-09-16T17:01:19.591Z,16.90
2022-09-16T17:03:49.557Z,19.48
2022-09-16T17:06:17.854Z,16.95
2022-09-16T17:08:44.484Z,18.60
2022-09-16T17:11:16.681Z,22.88
2022-09-16T17:13:45.818Z,18.58
2022-09-16T17:16:14.288Z,23.00
2022-09-16T17:18:42.201Z,22.58
2022-09-16T17:21:20.368Z,21.80
2022-09-16T17:23:47.453Z,25.40
2022-09-16T17:26:15.583Z,26.27
2022-09-16T17:28:45.000Z,22.05
2022-09-16T17:31:24.536Z,23.75
2022-09-16T17:34:02.401Z,22.17
2022-09-16T17:36:30.897Z,24.30
2022-09-16T17:39:02.974Z,21.50
2022-09-16T17:41:29.614Z,21.77
2022-09-16T17:43:57.506Z,19.35
2022-09-16T17:46:27.469Z,20.58
2022-09-16T17:49:04.225Z,19.92
2022-09-16T17:51:32.721Z,20.17
2022-09-16T17:53:59.780Z,19.75
2022-09-16T17:56:26.437Z,18.33
2022-09-16T17:58:53.855Z,17.55
2022-09-16T18:01:26.171Z,16.17
2022-09-16T18:06:29.056Z,18.13
2022-09-16T18:08:55.794Z,18.40
2022-09-16T18:11:23.076Z,18.55
2022-09-16T18:13:58.316Z,19.42
2022-09-16T18:16:26.388Z,16.13
2022-09-16T18:18:55.174Z,15.93
2022-09-16T18:21:23.971Z,15.32
2022-09-16T18:23:56.233Z,14.75
2022-09-16T18:26:23.688Z,16.33
2022-09-16T18:29:09.448Z,14.77
2022-09-16T18:31:38.035Z,32.00
2022-09-16T18:34:05.173Z,26.88
2022-09-16T18:36:33.394Z,32.55
2022-09-16T18:39:00.119Z,20.88
2022-09-16T18:41:29.413Z,15.38
2022-09-16T18:43:59.297Z,16.40
2022-09-16T18:46:27.368Z,16.13
2022-09-16T18:48:55.198Z,14.40
2022-09-16T18:51:23.337Z,13.23
2022-09-16T18:53:52.119Z,14.88
2022-09-16T18:56:21.321Z,14.32
2022-09-16T18:59:10.019Z,13.77
2022-09-16T19:01:37.016Z,14.20
2022-09-16T19:04:07.254Z,13.80
2022-09-16T19:06:38.567Z,14.07
2022-09-16T19:09:07.829Z,15.50
2022-09-16T19:11:35.485Z,16.10
2022-09-16T19:14:03.386Z,14.10
2022-09-16T19:16:31.010Z,16.40
2022-09-16T19:18:57.696Z,11.75
2022-09-16T19:21:24.944Z,10.43
2022-09-16T19:23:58.655Z,9.95
2022-09-16T19:26:27.587Z,8.43
2022-09-16T19:28:54.617Z,9.13
2022-09-16T19:31:23.064Z,7.07
2022-09-16T19:33:50.171Z,7.82
2022-09-16T19:36:19.399Z,6.35
2022-09-16T19:38:47.408Z,7.45
2022-09-16T19:41:14.472Z,5.20
2022-09-16T19:43:41.523Z,5.32
2022-09-16T19:46:08.316Z,6.30
2022-09-16T19:48:37.868Z,5.38
2022-09-16T19:51:06.347Z,6.78
2022-09-16T19:53:34.335Z,5.47
2022-09-16T19:56:06.168Z,5.28
2022-09-16T19:58:35.477Z,5.00
2022-09-16T20:01:13.931Z,6.30
2022-09-16T20:03:43.892Z,6.07
2022-09-16T20:06:34.984Z,5.95
2022-09-16T20:09:03.782Z,5.63
2022-09-16T20:11:33.517Z,6.97
2022-09-16T20:14:04.038Z,6.57
2022-09-16T20:16:38.960Z,6.45
2022-09-16T20:19:08.690Z,5.07
2022-09-16T20:21:36.301Z,6.07
2022-09-16T20:24:07.809Z,6.80
2022-09-16T20:26:35.978Z,5.03
2022-09-16T20:29:03.638Z,5.55
2022-09-16T20:31:34.910Z,5.05
2022-09-16T20:34:02.283Z,7.40
2022-09-16T20:36:30.964Z,4.80
2022-09-16T20:39:00.109Z,6.72
2022-09-16T20:41:29.425Z,7.60
2022-09-16T20:43:56.707Z,6.18
2022-09-16T20:46:26.109Z,5.78
2022-09-16T20:48:56.947Z,5.82
2022-09-16T20:51:27.264Z,5.20
2022-09-16T20:54:07.375Z,5.13
2022-09-16T20:56:39.638Z,7.03
2022-09-16T20:59:10.853Z,4.43
2022-09-16T21:01:39.669Z,5.80
2022-09-16T21:04:10.866Z,6.93
2022-09-16T21:06:37.565Z,7.13
2022-09-16T21:09:07.371Z,7.00
2022-09-16T21:11:34.049Z,5.78
2022-09-16T21:14:06.513Z,9.98
2022-09-16T21:16:35.025Z,16.38
2022-09-16T21:19:04.104Z,91.18
2022-09-16T21:21:31.650Z,6.85
2022-09-16T21:24:00.465Z,4.80
2022-09-16T21:26:31.025Z,7.93
2022-09-16T21:28:58.759Z,6.53
2022-09-16T21:31:27.938Z,4.97
2022-09-16T21:33:55.289Z,5.47
2022-09-16T21:36:23.385Z,7.07
2022-09-16T21:38:50.385Z,4.68
2022-09-16T21:41:19.448Z,5.43
2022-09-16T21:43:49.334Z,4.85
2022-09-16T21:46:21.090Z,4.93
2022-09-16T21:48:51.713Z,5.35
2022-09-16T21:51:19.898Z,6.78
2022-09-16T21:53:47.345Z,6.13
2022-09-16T21:56:21.247Z,5.35
2022-09-16T21:58:49.949Z,5.43
2022-09-16T22:01:19.747Z,6.65
2022-09-16T22:04:01.523Z,5.18
2022-09-16T22:06:28.568Z,6.63
2022-09-16T22:08:57.307Z,4.82
2022-09-16T22:11:26.260Z,5.78
2022-09-16T22:13:54.386Z,6.40
2022-09-16T22:16:26.940Z,4.60
2022-09-16T22:18:56.154Z,4.82
2022-09-16T22:21:24.792Z,4.68
2022-09-16T22:23:51.601Z,4.78
2022-09-16T22:26:21.093Z,5.65
2022-09-16T22:28:49.425Z,5.18
2022-09-16T22:31:17.737Z,5.45
2022-09-16T22:33:46.625Z,4.75
2022-09-16T22:36:16.498Z,4.13
2022-09-16T22:38:47.362Z,4.40
2022-09-16T22:41:15.464Z,4.60
2022-09-16T22:43:44.913Z,4.78
2022-09-16T22:46:21.546Z,4.10
2022-09-16T22:48:49.015Z,4.78
2022-09-16T22:51:17.483Z,4.45
2022-09-16T22:53:44.831Z,4.18
2022-09-16T22:56:24.975Z,5.75
2022-09-16T22:58:53.810Z,4.78
2022-09-16T23:01:26.958Z,4.80
2022-09-16T23:03:56.150Z,4.95
2022-09-16T23:06:24.795Z,4.68
2022-09-16T23:08:51.720Z,4.10
2022-09-16T23:11:21.015Z,5.55
2022-09-16T23:13:50.339Z,4.30
2022-09-16T23:16:20.670Z,5.47
2022-09-16T23:18:49.001Z,6.78
2022-09-16T23:21:17.902Z,5.78
2022-09-16T23:23:46.846Z,5.35
2022-09-16T23:26:18.176Z,4.97
2022-09-16T23:28:45.876Z,5.57
2022-09-16T23:31:14.876Z,6.07
2022-09-16T23:33:42.564Z,4.60
2022-09-16T23:36:11.981Z,6.53
2022-09-16T23:38:40.119Z,5.30
2022-09-16T23:41:10.723Z,5.40
2022-09-16T23:43:38.447Z,6.05
2022-09-16T23:46:05.818Z,6.00
2022-09-16T23:48:32.480Z,6.65
2022-09-16T23:50:59.627Z,7.70
2022-09-16T23:53:26.428Z,6.80
2022-09-16T23:55:53.148Z,7.75
2022-09-16T23:58:20.411Z,6.40
